Terminal Aerodrome Forecast
Issued by NWS

Home | Current Version | Previous Version | Graphics & Text | Print | Product List | Glossary On
Versions: 1 2 3 4 5 6 7 8 9 10 11 12 13 14 15 16 17 18 19 20 21 22 23 24 25
000
FTUS45 KGGW 242300
TAFGDV
TAF
KGDV 242320Z 2500/2524 VRB05KT 6SM -SHSN OVC050
     FM250600 36008KT P6SM VCSH OVC045
     FM251800 34012KT P6SM BKN016
      AMD LTD TO CLD VIS AND WIND=

USA.gov is the U.S. government's official web portal to all federal, state and local government web resources and services.